Time;durP1;ratioP1;P1;durP2;ratioP2;P2;SDS_P1;SDS_P2;PMS_P1;PMS_P2;Temp;Humidity;BMP_temperature;BMP_pressure;BME280_temperature;BME280_humidity;BME280_pressure;Samples;Min_cycle;Max_cycle;Signal;HPM_P1;HPM_P2
2023/07/28 00:02:33;;;;;;;3.38;1.38;;;;;;;23.54;58.37;100534.66;6242949;23;20024;-84
2023/07/28 00:05:23;;;;;;;5.80;1.20;;;;;;;23.68;57.38;100532.56;6221836;23;20020;-82
2023/07/28 00:08:10;;;;;;;6.13;1.10;;;;;;;23.79;57.14;100544.38;6243286;23;20283;-82
2023/07/28 00:11:02;;;;;;;5.32;1.13;;;;;;;23.68;56.95;100524.22;6244024;23;20023;-83
2023/07/28 00:13:55;;;;;;;1.33;1.00;;;;;;;23.62;56.97;100523.09;6223894;23;20490;-83
2023/07/28 00:16:47;;;;;;;1.98;0.85;;;;;;;23.73;57.32;100531.31;6223869;23;20027;-82
2023/07/28 00:19:36;;;;;;;4.72;1.30;;;;;;;23.55;57.56;100528.69;6222975;23;20359;-82
2023/07/28 00:22:30;;;;;;;3.15;1.30;;;;;;;23.37;58.16;100520.47;6223831;23;20023;-82
2023/07/28 00:25:22;;;;;;;3.47;1.25;;;;;;;23.25;58.68;100520.16;6222393;23;20023;-83
2023/07/28 00:28:11;;;;;;;4.70;1.20;;;;;;;23.39;58.89;100520.84;6223328;23;20463;-83
2023/07/28 00:31:00;;;;;;;1.20;0.70;;;;;;;23.51;58.15;100522.41;6217330;23;20019;-84
2023/07/28 00:33:50;;;;;;;2.97;1.33;;;;;;;23.61;57.58;100515.19;6222275;23;20020;-84
2023/07/28 00:36:46;;;;;;;3.80;1.60;;;;;;;23.59;58.35;100512.00;6243516;23;20028;-84
2023/07/28 00:39:41;;;;;;;4.93;1.65;;;;;;;23.22;58.23;100504.31;6221353;23;20024;-83
2023/07/28 00:42:36;;;;;;;4.00;1.27;;;;;;;23.34;58.58;100517.72;6243914;23;20031;-83
2023/07/28 00:45:31;;;;;;;4.47;1.42;;;;;;;23.41;58.52;100507.38;6222309;23;20016;-83
2023/07/28 00:48:25;;;;;;;5.78;1.38;;;;;;;23.18;59.38;100503.53;6222013;23;20072;-83
2023/07/28 00:51:18;;;;;;;3.47;1.05;;;;;;;23.11;59.17;100498.06;6215967;23;20024;-84
2023/07/28 00:54:10;;;;;;;6.88;1.63;;;;;;;23.01;59.55;100489.38;6223462;23;20360;-83
2023/07/28 00:57:05;;;;;;;5.20;1.50;;;;;;;23.26;59.18;100505.09;6221726;23;20024;-84
2023/07/28 01:00:00;;;;;;;5.15;1.55;;;;;;;23.46;58.52;100505.38;6243012;23;20027;-84
2023/07/28 01:02:55;;;;;;;5.63;2.17;;;;;;;23.48;58.39;100500.97;6222196;23;20352;-83
2023/07/28 01:06:12;;;;;;;5.43;1.48;;;;;;;23.23;58.79;100498.34;6222287;23;20023;-83
2023/07/28 01:09:09;;;;;;;7.38;1.67;;;;;;;23.45;58.71;100501.81;6243402;23;20043;-83
2023/07/28 01:12:06;;;;;;;5.15;1.55;;;;;;;23.64;57.92;100503.25;6221837;23;20027;-83
2023/07/28 01:15:01;;;;;;;3.95;1.33;;;;;;;23.58;57.74;100497.34;6222750;23;20027;-83
2023/07/28 01:17:55;;;;;;;2.40;1.05;;;;;;;23.58;57.70;100494.56;6221648;23;20024;-83
2023/07/28 01:20:56;;;;;;;3.60;1.50;;;;;;;23.58;57.47;100505.66;6221607;23;20475;-86
2023/07/28 01:23:58;;;;;;;3.10;1.58;;;;;;;23.67;57.26;100496.88;6243692;23;20028;-83
2023/07/28 01:26:53;;;;;;;2.33;1.33;;;;;;;23.62;57.39;100480.66;6243753;23;20020;-83
2023/07/28 01:29:48;;;;;;;2.45;1.17;;;;;;;23.29;57.32;100487.63;6242598;23;20023;-83
2023/07/28 01:32:40;;;;;;;;;;;;;;;23.36;57.60;100498.69;6244018;23;20020;-83
2023/07/28 01:35:34;;;;;;;2.47;1.10;;;;;;;23.22;57.24;100493.19;6243514;23;19912;-83
2023/07/28 01:38:28;;;;;;;5.10;1.48;;;;;;;22.86;57.93;100481.53;6243289;23;20023;-83
2023/07/28 01:41:21;;;;;;;1.60;0.82;;;;;;;22.60;59.44;100480.06;6243313;23;20032;-83
2023/07/28 01:44:15;;;;;;;3.78;1.13;;;;;;;22.48;60.30;100474.94;6222120;23;20028;-84
2023/07/28 01:47:10;;;;;;;3.05;1.42;;;;;;;22.56;59.88;100473.72;6243019;23;20024;-84
2023/07/28 01:50:03;;;;;;;1.85;0.82;;;;;;;22.90;59.81;100472.03;6221439;23;20387;-83
2023/07/28 01:52:57;;;;;;;6.45;1.35;;;;;;;23.20;58.84;100484.50;6243556;23;20020;-83
2023/07/28 01:55:52;;;;;;;1.83;0.90;;;;;;;23.06;58.96;100484.63;6223372;23;20032;-83
2023/07/28 01:58:46;;;;;;;3.35;1.10;;;;;;;23.34;58.49;100478.88;6243014;23;20092;-83
2023/07/28 02:01:41;;;;;;;5.80;1.23;;;;;;;23.31;58.15;100485.25;6221257;23;20474;-83
2023/07/28 02:04:36;;;;;;;3.90;1.05;;;;;;;23.38;58.06;100485.97;6243414;23;20470;-83
2023/07/28 02:07:30;;;;;;;2.20;1.40;;;;;;;23.42;57.76;100485.94;6221816;23;20020;-83
2023/07/28 02:10:23;;;;;;;3.15;0.85;;;;;;;23.61;57.07;100468.78;6243114;23;20023;-84
2023/07/28 02:13:15;;;;;;;6.20;0.82;;;;;;;23.64;57.07;100473.50;6243312;23;20023;-84
2023/07/28 02:16:10;;;;;;;1.92;1.05;;;;;;;23.63;56.76;100469.13;6243379;23;20027;-85
2023/07/28 02:18:59;;;;;;;1.58;0.68;;;;;;;23.63;56.70;100488.56;6220898;23;20039;-85
2023/07/28 02:21:56;;;;;;;1.42;0.90;;;;;;;23.57;56.66;100476.31;6221590;23;20023;-85
2023/07/28 02:24:50;;;;;;;2.25;1.17;;;;;;;23.56;56.86;100483.09;6221846;23;20352;-85
2023/07/28 02:27:45;;;;;;;1.75;1.00;;;;;;;23.52;57.00;100490.63;6243212;23;20024;-86
2023/07/28 02:30:37;;;;;;;2.88;1.20;;;;;;;23.54;57.23;100496.59;6221632;23;20355;-86
2023/07/28 02:33:32;;;;;;;1.25;0.82;;;;;;;23.58;56.92;100494.56;6223239;23;20371;-86
2023/07/28 02:36:26;;;;;;;2.15;1.00;;;;;;;23.60;56.79;100499.72;6244469;23;20466;-85
2023/07/28 02:39:21;;;;;;;3.53;1.15;;;;;;;23.57;56.91;100495.00;6244665;23;20020;-86
2023/07/28 02:42:13;;;;;;;2.58;0.75;;;;;;;23.51;56.93;100489.09;6224653;23;20032;-85
2023/07/28 02:45:07;;;;;;;1.67;1.00;;;;;;;23.53;56.93;100492.22;6223659;23;20028;-85
2023/07/28 02:48:02;;;;;;;2.17;0.90;;;;;;;23.49;56.81;100491.47;6223197;23;20027;-87
2023/07/28 02:51:15;;;;;;;3.35;0.90;;;;;;;23.57;56.86;100495.75;6245024;23;20028;-87
2023/07/28 02:54:10;;;;;;;3.55;1.90;;;;;;;23.62;56.50;100489.75;6223450;23;20024;-84
2023/07/28 02:57:02;;;;;;;93.35;20.40;;;;;;;23.60;56.38;100483.84;6223661;23;20027;-84
2023/07/28 02:59:56;;;;;;;4.68;1.45;;;;;;;23.39;56.88;100487.53;6244400;23;20016;-84
2023/07/28 03:02:51;;;;;;;2.10;1.30;;;;;;;23.37;57.25;100486.34;6244941;23;20479;-84
2023/07/28 03:05:45;;;;;;;2.40;0.98;;;;;;;23.26;57.14;100480.13;6224757;23;20486;-84
2023/07/28 03:08:48;;;;;;;3.03;0.95;;;;;;;23.28;57.37;100480.47;6243648;23;20191;-84
2023/07/28 03:12:02;;;;;;;1.42;1.02;;;;;;;23.25;57.39;100484.88;6222513;23;20028;-85
2023/07/28 03:15:00;;;;;;;2.40;1.00;;;;;;;23.22;57.07;100476.56;6223360;23;20027;-84
2023/07/28 03:17:54;;;;;;;6.38;0.85;;;;;;;23.20;57.33;100481.75;6223288;23;20525;-84
2023/07/28 03:20:48;;;;;;;5.60;1.20;;;;;;;23.19;57.17;100494.03;6244712;23;20040;-84
2023/07/28 03:23:43;;;;;;;1.08;0.68;;;;;;;23.14;57.26;100486.13;6222477;23;20027;-84
2023/07/28 03:26:35;;;;;;;2.60;1.00;;;;;;;23.12;57.56;100482.97;6222835;23;20026;-84
2023/07/28 03:29:30;;;;;;;2.85;0.93;;;;;;;23.14;57.51;100486.94;6223888;23;20027;-84
2023/07/28 03:32:25;;;;;;;2.63;0.98;;;;;;;23.08;57.33;100473.88;6222820;23;20043;-84
2023/07/28 03:35:15;;;;;;;2.30;1.40;;;;;;;23.03;57.56;100480.66;6221601;23;20032;-84
2023/07/28 03:38:13;;;;;;;1.80;0.95;;;;;;;23.08;57.21;100476.66;6221995;23;20023;-84
2023/07/28 03:41:06;;;;;;;4.75;0.93;;;;;;;23.08;57.41;100483.00;6222115;23;20024;-84
2023/07/28 03:44:01;;;;;;;1.85;1.00;;;;;;;23.08;57.19;100466.34;6222048;23;20027;-83
2023/07/28 03:46:53;;;;;;;2.47;1.02;;;;;;;23.10;57.29;100468.72;6221872;23;20035;-83
2023/07/28 03:49:46;;;;;;;2.50;0.98;;;;;;;23.12;57.22;100469.88;6242553;23;20046;-83
2023/07/28 03:52:40;;;;;;;4.63;1.13;;;;;;;23.15;57.51;100473.84;6224571;23;20027;-83
2023/07/28 03:55:35;;;;;;;2.35;1.08;;;;;;;23.11;57.28;100457.19;6222238;23;20043;-83
2023/07/28 03:58:27;;;;;;;2.45;1.08;;;;;;;23.13;57.34;100454.81;6243573;23;20080;-84
2023/07/28 04:01:21;;;;;;;1.95;0.63;;;;;;;23.12;57.23;100461.56;6243878;23;20032;-84
2023/07/28 04:04:13;;;;;;;2.83;1.70;;;;;;;23.11;57.34;100464.75;6244155;23;20035;-84
2023/07/28 04:07:07;;;;;;;6.00;0.85;;;;;;;23.11;57.29;100464.75;6222863;23;20379;-84
2023/07/28 04:10:00;;;;;;;3.85;1.42;;;;;;;23.08;57.37;100465.56;6243691;23;20027;-84
2023/07/28 04:12:54;;;;;;;1.52;1.00;;;;;;;23.07;57.16;100458.44;6244146;23;20024;-84
2023/07/28 04:15:46;;;;;;;1.65;1.10;;;;;;;23.03;57.24;100456.47;6221956;23;20032;-84
2023/07/28 04:18:38;;;;;;;1.98;1.15;;;;;;;23.06;57.46;100448.56;6243459;23;20023;-84
2023/07/28 04:21:27;;;;;;;3.78;1.30;;;;;;;23.02;57.63;100459.66;6222408;23;20343;-83
2023/07/28 04:24:22;;;;;;;2.45;1.05;;;;;;;23.06;57.47;100457.63;6222682;23;20023;-83
2023/07/28 04:27:17;;;;;;;5.05;1.65;;;;;;;23.09;57.20;100462.38;6222611;23;20024;-83
2023/07/28 04:30:11;;;;;;;2.45;1.25;;;;;;;23.20;57.16;100463.09;6222062;23;20024;-83
2023/07/28 04:33:03;;;;;;;2.40;1.40;;;;;;;23.18;57.22;100465.50;6222202;23;20024;-84
2023/07/28 04:36:01;;;;;;;3.83;0.98;;;;;;;23.18;56.98;100459.16;6243836;23;20044;-84
2023/07/28 04:38:59;;;;;;;9.27;1.20;;;;;;;22.96;57.39;100455.72;6222076;23;20020;-83
2023/07/28 04:41:51;;;;;;;7.43;1.27;;;;;;;22.97;57.74;100458.09;6241317;23;20027;-83
2023/07/28 04:44:46;;;;;;;5.15;1.23;;;;;;;23.02;57.86;100454.88;6243827;23;20514;-83
2023/07/28 04:47:41;;;;;;;5.35;1.00;;;;;;;22.84;57.89;100462.53;6242808;23;20044;-81
2023/07/28 04:50:36;;;;;;;9.65;1.42;;;;;;;22.58;59.17;100474.13;6219523;23;20043;-81
2023/07/28 04:53:54;;;;;;;14.88;1.20;;;;;;;22.83;58.62;100465.72;6204558;23;20020;-82
2023/07/28 04:56:50;;;;;;;4.20;0.98;;;;;;;22.93;58.50;100462.88;6221511;23;20352;-82
2023/07/28 04:59:43;;;;;;;;;;;;;;;23.12;57.77;100474.63;6241826;23;20032;-82
2023/07/28 05:02:37;;;;;;;5.60;1.10;;;;;;;23.18;57.53;100484.13;6219427;23;19911;-81
2023/07/28 05:05:34;;;;;;;3.92;1.60;;;;;;;23.22;57.52;100474.56;6242332;23;20020;-81
2023/07/28 05:08:24;;;;;;;11.37;1.53;;;;;;;23.11;58.14;100476.63;6239591;23;20356;-80
2023/07/28 05:11:13;;;;;;;2.60;1.35;;;;;;;23.21;57.89;100475.75;6220567;23;20027;-81
2023/07/28 05:14:08;;;;;;;10.18;1.88;;;;;;;23.15;57.93;100482.16;6220621;23;20019;-82
2023/07/28 05:17:01;;;;;;;6.22;1.63;;;;;;;23.24;58.05;100468.63;6220931;23;20039;-80
2023/07/28 05:20:06;;;;;;;3.17;1.30;;;;;;;23.27;57.76;100474.13;6220111;23;20020;-79
2023/07/28 05:23:02;;;;;;;4.70;1.25;;;;;;;23.29;57.57;100471.75;6240725;23;20021;-80
2023/07/28 05:25:57;;;;;;;3.45;1.30;;;;;;;23.29;58.16;100471.75;6219620;23;20039;-81
2023/07/28 05:28:51;;;;;;;8.70;1.90;;;;;;;23.28;58.20;100474.94;6242561;23;20028;-80
2023/07/28 05:31:46;;;;;;;2.88;1.45;;;;;;;23.24;58.96;100490.81;6210167;23;20039;-81
2023/07/28 05:34:53;;;;;;;3.28;1.33;;;;;;;23.38;58.36;100488.72;6273117;22;20030;-80
2023/07/28 05:37:45;;;;;;;5.82;1.95;;;;;;;23.47;57.94;100498.63;6282871;22;20026;-80
2023/07/28 05:40:40;;;;;;;9.15;1.75;;;;;;;23.44;58.40;100489.09;6282812;22;20019;-80
2023/07/28 05:43:35;;;;;;;7.13;1.52;;;;;;;23.39;58.24;100492.31;6284454;22;20023;-80
2023/07/28 05:46:30;;;;;;;8.50;1.90;;;;;;;23.56;57.86;100502.53;6261390;22;20015;-80
2023/07/28 05:49:23;;;;;;;9.57;2.05;;;;;;;23.55;58.02;100497.38;6284129;22;20026;-80
2023/07/28 05:52:17;;;;;;;5.10;1.80;;;;;;;23.56;58.02;100499.75;6257514;22;20031;-80
2023/07/28 05:55:12;;;;;;;8.00;2.38;;;;;;;23.55;58.37;100505.69;6240179;22;20043;-80
2023/07/28 05:58:06;;;;;;;35.40;3.35;;;;;;;23.38;59.26;100510.94;6240511;22;20026;-80
2023/07/28 06:01:02;;;;;;;25.20;3.20;;;;;;;23.51;58.73;100513.28;6261455;22;20018;-80
2023/07/28 06:04:15;;;;;;;14.18;2.80;;;;;;;23.56;58.78;100515.63;6272827;22;20042;-80
2023/07/28 06:07:11;;;;;;;13.18;2.35;;;;;;;23.66;58.74;100517.53;6261979;22;20034;-80
2023/07/28 06:10:06;;;;;;;15.60;2.28;;;;;;;23.80;58.17;100518.19;6263107;22;20042;-80
2023/07/28 06:12:58;;;;;;;38.20;2.97;;;;;;;23.93;57.84;100514.88;6263521;22;20027;-79
2023/07/28 06:15:56;;;;;;;20.65;2.70;;;;;;;24.01;57.44;100513.63;6263402;22;20023;-80
2023/07/28 06:18:50;;;;;;;11.70;2.17;;;;;;;24.08;57.43;100521.88;6284633;22;20042;-80
2023/07/28 06:21:43;;;;;;;8.60;1.77;;;;;;;23.97;57.53;100521.22;6243051;22;20026;-82
2023/07/28 06:24:32;;;;;;;11.90;2.05;;;;;;;23.88;58.48;100522.47;6263220;22;20022;-82
2023/07/28 06:27:27;;;;;;;9.50;2.05;;;;;;;23.93;58.20;100537.09;6241487;22;20030;-82
2023/07/28 06:30:21;;;;;;;10.48;1.80;;;;;;;23.91;58.38;100545.09;6263080;22;20022;-82
2023/07/28 06:33:14;;;;;;;12.73;1.63;;;;;;;24.02;58.39;100549.34;6281575;22;20042;-82
2023/07/28 06:36:12;;;;;;;8.35;2.03;;;;;;;24.11;58.23;100557.22;6281814;22;20023;-82
2023/07/28 06:39:13;;;;;;;6.72;1.52;;;;;;;24.13;58.26;100552.00;6262661;22;20469;-81
2023/07/28 06:42:07;;;;;;;9.35;1.65;;;;;;;24.22;58.48;100560.72;6285892;22;20022;-82
2023/07/28 06:45:04;;;;;;;6.05;1.55;;;;;;;24.23;58.31;100563.06;6262678;22;20026;-81
2023/07/28 06:47:58;;;;;;;10.07;1.92;;;;;;;24.24;58.12;100555.50;6283059;22;20019;-82
2023/07/28 06:50:53;;;;;;;9.90;3.10;;;;;;;24.20;58.57;100558.34;6261086;22;20038;-82
2023/07/28 06:53:47;;;;;;;7.82;1.60;;;;;;;24.21;57.49;100556.34;6262409;22;20434;-82
2023/07/28 06:56:42;;;;;;;4.68;1.80;;;;;;;24.22;57.82;100564.28;6282553;22;20044;-82
2023/07/28 06:59:35;;;;;;;5.68;1.90;;;;;;;24.27;58.17;100551.94;6261540;22;20027;-82
2023/07/28 07:02:25;;;;;;;6.60;1.55;;;;;;;24.21;58.13;100550.78;6260438;22;20026;-82
2023/07/28 07:05:20;;;;;;;4.25;1.50;;;;;;;24.27;57.60;100551.94;6262729;22;20358;-82
2023/07/28 07:08:12;;;;;;;5.25;1.10;;;;;;;24.35;57.00;100550.63;6262101;22;20019;-82
2023/07/28 07:11:07;;;;;;;10.93;1.77;;;;;;;24.42;57.28;100563.69;6284313;22;20469;-82
2023/07/28 07:14:02;;;;;;;4.00;1.42;;;;;;;24.50;56.66;100568.75;6262749;22;20037;-82
2023/07/28 07:16:57;;;;;;;5.85;1.45;;;;;;;24.51;56.42;100567.56;6262533;22;20043;-82
2023/07/28 07:19:53;;;;;;;8.88;1.30;;;;;;;24.51;55.53;100573.13;6251593;22;20027;-82
2023/07/28 07:22:45;;;;;;;3.25;0.70;;;;;;;24.62;55.09;100579.34;6262447;22;20022;-82
2023/07/28 07:25:40;;;;;;;2.53;1.27;;;;;;;24.60;55.35;100576.19;6262494;22;20027;-82
2023/07/28 07:28:34;;;;;;;5.07;1.10;;;;;;;24.62;55.87;100582.13;6262142;22;20034;-82
2023/07/28 07:31:30;;;;;;;1.42;0.95;;;;;;;24.66;55.72;100574.53;6262444;22;20042;-82
2023/07/28 07:34:24;;;;;;;2.22;0.75;;;;;;;24.75;55.42;100571.25;6276960;22;20019;-82
2023/07/28 07:37:16;;;;;;;4.10;1.10;;;;;;;24.90;55.04;100563.56;6262398;22;20039;-81
2023/07/28 07:40:11;;;;;;;4.40;1.20;;;;;;;24.94;54.89;100573.44;6261895;22;20031;-82
2023/07/28 07:43:03;;;;;;;16.92;1.65;;;;;;;24.97;54.60;100567.03;6262342;22;20023;-82
2023/07/28 07:45:57;;;;;;;4.35;1.25;;;;;;;24.95;54.50;100580.56;6259517;22;20031;-82
2023/07/28 07:48:51;;;;;;;2.95;1.40;;;;;;;24.99;54.92;100575.00;6281492;22;20027;-82
2023/07/28 07:51:45;;;;;;;6.53;1.35;;;;;;;25.02;54.53;100574.16;6254114;22;20023;-82
2023/07/28 07:54:40;;;;;;;7.10;1.98;;;;;;;25.15;54.42;100577.94;6280729;22;20026;-82
2023/07/28 07:57:34;;;;;;;3.25;0.90;;;;;;;25.14;54.36;100579.16;6260625;22;20469;-82
2023/07/28 08:00:29;;;;;;;2.53;1.08;;;;;;;25.21;54.85;100576.28;6260038;22;20034;-82
2023/07/28 08:03:23;;;;;;;7.05;1.05;;;;;;;25.36;54.23;100583.22;6260628;22;20075;-81
2023/07/28 08:06:18;;;;;;;2.70;1.33;;;;;;;25.39;54.27;100584.38;6262371;22;20022;-82
2023/07/28 08:09:10;;;;;;;7.75;1.00;;;;;;;25.38;53.41;100582.81;6261925;22;20343;-82
2023/07/28 08:12:00;;;;;;;8.43;1.42;;;;;;;25.44;53.34;100581.13;6262236;22;20398;-82
2023/07/28 08:14:54;;;;;;;5.93;1.65;;;;;;;25.46;53.20;100585.06;6262014;22;20477;-82
2023/07/28 08:17:49;;;;;;;5.18;1.80;;;;;;;25.45;53.03;100582.69;6284753;22;20501;-82
2023/07/28 08:20:41;;;;;;;4.32;0.90;;;;;;;25.61;53.21;100582.88;6262024;22;20026;-82
2023/07/28 08:23:35;;;;;;;5.38;1.30;;;;;;;25.69;52.49;100589.94;6262118;22;20027;-82
2023/07/28 08:26:30;;;;;;;2.83;0.90;;;;;;;25.68;52.81;100590.34;6285056;22;20023;-81
2023/07/28 08:29:20;;;;;;;6.53;2.17;;;;;;;25.77;53.68;100593.38;6261738;22;20026;-82
2023/07/28 08:32:15;;;;;;;3.00;1.17;;;;;;;25.80;52.82;100595.34;6261619;22;20347;-82
2023/07/28 08:35:10;;;;;;;2.83;1.00;;;;;;;25.83;53.19;100586.94;6261660;22;20027;-82
2023/07/28 08:38:02;;;;;;;4.25;1.00;;;;;;;25.90;52.67;100589.63;6261221;22;20019;-82
2023/07/28 08:40:58;;;;;;;2.88;0.80;;;;;;;25.95;51.90;100594.69;6261618;22;20553;-82
2023/07/28 08:43:50;;;;;;;3.92;1.20;;;;;;;25.85;52.21;100583.72;6261871;22;20042;-82
2023/07/28 08:46:45;;;;;;;1.25;0.80;;;;;;;25.86;52.34;100583.28;6261960;22;20015;-82
2023/07/28 08:49:37;;;;;;;7.03;1.05;;;;;;;25.81;52.50;100574.63;6260823;22;20485;-82
2023/07/28 08:52:32;;;;;;;2.10;0.90;;;;;;;25.89;52.71;100587.25;6261707;22;20210;-82
2023/07/28 08:55:26;;;;;;;1.80;0.88;;;;;;;25.86;52.18;100576.91;6284899;22;20473;-82
2023/07/28 08:58:28;;;;;;;3.80;0.90;;;;;;;25.94;51.99;100583.97;6261347;22;20018;-82
2023/07/28 09:01:25;;;;;;;1.60;0.68;;;;;;;26.08;52.54;100583.72;6261758;22;20023;-82
2023/07/28 09:04:20;;;;;;;6.22;1.17;;;;;;;26.17;52.70;100585.97;6282467;22;20018;-82
2023/07/28 09:07:12;;;;;;;;;;;;;;;26.35;51.90;100581.69;6260165;22;20035;-82
2023/07/28 09:10:05;;;;;;;5.22;1.27;;;;;;;26.28;51.53;100579.03;6282281;22;19911;-83
2023/07/28 09:12:55;;;;;;;1.63;0.73;;;;;;;26.32;51.33;100581.75;6261857;22;20359;-82
2023/07/28 09:15:49;;;;;;;5.53;1.30;;;;;;;26.46;51.35;100587.09;6261438;22;20504;-82
2023/07/28 09:18:42;;;;;;;5.18;1.67;;;;;;;26.50;52.30;100589.78;6260987;22;20026;-82
2023/07/28 09:21:36;;;;;;;2.05;1.02;;;;;;;26.40;51.13;100583.19;6283001;22;20038;-82
2023/07/28 09:24:31;;;;;;;;;;;;;;;26.45;51.19;100595.88;6285034;22;20352;-82
2023/07/28 09:27:26;;;;;;;2.38;0.90;;;;;;;26.53;50.38;100598.09;6261800;22;19907;-83
2023/07/28 09:30:20;;;;;;;4.35;1.23;;;;;;;26.50;50.99;100590.59;6261314;22;20043;-82
2023/07/28 09:33:13;;;;;;;4.10;1.42;;;;;;;26.45;51.90;100593.88;6261426;22;20022;-83
2023/07/28 09:36:17;;;;;;;9.40;1.27;;;;;;;26.57;51.29;100592.44;6261405;22;20026;-82
2023/07/28 09:39:11;;;;;;;4.97;1.67;;;;;;;26.69;51.29;100592.59;6284171;22;20362;-83
2023/07/28 09:42:07;;;;;;;4.97;1.23;;;;;;;26.60;50.45;100597.19;6284973;22;20022;-82
2023/07/28 09:44:59;;;;;;;2.20;1.17;;;;;;;26.27;51.08;100591.38;6263876;22;20026;-83
2023/07/28 09:47:58;;;;;;;4.18;0.93;;;;;;;26.24;52.00;100586.66;6263462;22;20102;-82
2023/07/28 09:50:50;;;;;;;4.07;2.10;;;;;;;26.64;51.90;100583.94;6280660;22;20026;-81
2023/07/28 09:53:46;;;;;;;3.22;1.52;;;;;;;26.82;50.86;100576.00;6263397;22;20366;-81
2023/07/28 09:56:40;;;;;;;2.97;1.10;;;;;;;26.83;51.00;100569.19;6263300;22;20038;-81
2023/07/28 09:59:55;;;;;;;12.25;2.45;;;;;;;26.91;51.71;100565.09;6284878;22;20347;-82
2023/07/28 10:02:51;;;;;;;9.25;2.28;;;;;;;26.66;52.12;100567.56;6263263;22;20023;-81
2023/07/28 10:05:44;;;;;;;4.72;2.33;;;;;;;26.63;52.34;100568.41;6285067;22;20022;-80
2023/07/28 10:08:38;;;;;;;3.40;1.83;;;;;;;26.74;53.20;100569.00;6262977;22;20022;-79
2023/07/28 10:11:33;;;;;;;10.88;2.33;;;;;;;27.01;51.58;100572.47;6243045;22;20022;-80
2023/07/28 10:14:37;;;;;;;7.80;2.53;;;;;;;27.13;52.37;100573.78;6286297;22;20027;-80
2023/07/28 10:17:35;;;;;;;5.88;1.63;;;;;;;26.68;53.80;100570.69;6263096;22;20355;-79
2023/07/28 10:20:41;;;;;;;18.50;2.65;;;;;;;26.51;53.39;100577.44;6263090;22;20042;-80
2023/07/28 10:23:33;;;;;;;4.38;1.65;;;;;;;26.92;51.01;100561.06;6286089;22;20362;-80
2023/07/28 10:26:45;;;;;;;2.58;1.38;;;;;;;26.54;52.54;100565.41;6263141;22;20023;-80
2023/07/28 10:30:23;;;;;;;4.22;2.13;;;;;;;26.68;51.25;100565.13;6246531;22;20022;-80
2023/07/28 10:33:48;;;;;;;6.03;1.58;;;;;;;26.15;53.54;100561.31;6275212;22;20027;-80
2023/07/28 10:36:35;;;;;;;5.80;2.00;;;;;;;26.26;53.31;100577.88;6260701;22;20026;-80
2023/07/28 10:39:28;;;;;;;6.05;1.63;;;;;;;25.93;53.47;100566.47;6262464;22;20022;-80
2023/07/28 10:42:23;;;;;;;5.28;2.00;;;;;;;26.82;51.29;100571.19;6262975;22;20035;-80
2023/07/28 10:45:21;;;;;;;3.90;2.53;;;;;;;27.04;50.03;100562.44;6263049;22;20023;-80
2023/07/28 10:48:30;;;;;;;4.43;1.80;;;;;;;27.38;49.76;100568.44;6268238;22;20023;-79
2023/07/28 10:51:32;;;;;;;7.53;1.70;;;;;;;27.10;50.19;100569.06;6261702;22;20026;-80
2023/07/28 10:54:27;;;;;;;4.05;1.27;;;;;;;26.72;50.67;100563.03;6237379;22;20480;-80
2023/07/28 10:57:20;;;;;;;4.50;3.00;;;;;;;27.18;49.04;100565.69;6261488;22;20074;-79
2023/07/28 11:00:15;;;;;;;1.95;1.30;;;;;;;26.78;50.27;100567.69;6284805;22;20043;-79
2023/07/28 11:03:09;;;;;;;7.77;1.90;;;;;;;26.94;50.16;100561.44;6262929;22;20026;-79
2023/07/28 11:06:06;;;;;;;4.38;2.03;;;;;;;27.33;48.55;100562.59;6264269;22;20046;-79
2023/07/28 11:09:01;;;;;;;4.28;2.28;;;;;;;27.59;48.68;100556.81;6242298;22;20042;-79
2023/07/28 11:12:13;;;;;;;5.72;1.90;;;;;;;27.91;49.38;100560.84;6245968;22;20022;-79
2023/07/28 11:15:10;;;;;;;5.15;1.63;;;;;;;27.44;48.51;100551.94;6284436;22;20023;-79
2023/07/28 11:18:06;;;;;;;5.80;2.88;;;;;;;27.73;48.37;100552.91;6262169;22;20042;-79
2023/07/28 11:20:58;;;;;;;3.35;1.55;;;;;;;27.28;49.38;100549.91;6261779;22;20022;-79
2023/07/28 11:24:12;;;;;;;2.78;0.95;;;;;;;26.35;51.62;100547.44;6262472;22;20042;-80
2023/07/28 11:27:07;;;;;;;3.90;1.80;;;;;;;26.34;51.61;100541.06;6242386;22;20026;-79
2023/07/28 11:30:03;;;;;;;1.98;1.25;;;;;;;26.45;51.64;100540.09;6259818;22;20018;-79
2023/07/28 11:32:55;;;;;;;3.95;2.03;;;;;;;27.29;46.95;100533.94;6285089;22;20022;-79
2023/07/28 11:35:49;;;;;;;3.72;1.63;;;;;;;27.64;47.61;100531.13;6262472;22;20245;-79
2023/07/28 11:39:03;;;;;;;3.13;1.15;;;;;;;27.47;47.60;100528.75;6261987;22;20034;-79
2023/07/28 11:41:57;;;;;;;5.97;1.70;;;;;;;26.70;50.09;100518.84;6285378;22;20027;-79
2023/07/28 11:44:52;;;;;;;4.65;1.35;;;;;;;26.88;49.39;100520.50;6285170;22;20019;-79
2023/07/28 11:47:56;;;;;;;3.75;1.33;;;;;;;26.77;49.67;100520.69;6263453;22;20026;-79
2023/07/28 11:51:06;;;;;;;3.67;1.23;;;;;;;27.04;47.23;100515.75;6244020;22;20050;-79
2023/07/28 11:54:00;;;;;;;8.07;1.40;;;;;;;26.93;49.42;100522.78;6263801;22;20030;-79
2023/07/28 11:56:54;;;;;;;10.77;1.30;;;;;;;26.19;51.58;100523.00;6262147;22;20022;-79
2023/07/28 11:59:48;;;;;;;4.88;1.52;;;;;;;25.96;52.63;100514.66;6260400;22;20350;-79
2023/07/28 12:02:42;;;;;;;6.78;1.50;;;;;;;25.98;52.46;100526.16;6257545;22;20485;-79
2023/07/28 12:05:35;;;;;;;12.18;1.50;;;;;;;25.81;52.89;100519.69;6236854;22;20031;-79
2023/07/28 12:08:47;;;;;;;5.75;1.60;;;;;;;25.70;52.96;100521.84;6240627;22;20347;-79
2023/07/28 12:11:59;;;;;;;9.32;1.55;;;;;;;26.19;50.39;100513.84;6260652;22;20022;-79
2023/07/28 12:14:52;;;;;;;9.57;2.90;;;;;;;26.91;49.54;100514.84;6263370;22;20027;-79
2023/07/28 12:18:16;;;;;;;2.05;1.40;;;;;;;26.13;51.49;100512.75;6261914;22;20023;-79
2023/07/28 12:21:13;;;;;;;7.30;2.28;;;;;;;25.90;52.27;100505.22;6283535;22;20023;-79
2023/07/28 12:24:08;;;;;;;5.13;1.30;;;;;;;25.81;52.20;100514.09;6222605;22;20050;-79
2023/07/28 12:27:03;;;;;;;2.72;1.20;;;;;;;25.80;52.82;100504.16;6241640;22;20030;-79
2023/07/28 12:29:54;;;;;;;8.85;1.35;;;;;;;26.12;51.36;100506.41;6280097;22;20022;-79
2023/07/28 12:32:46;;;;;;;5.82;1.30;;;;;;;25.96;52.11;100503.50;6240550;22;20031;-79
2023/07/28 12:35:37;;;;;;;9.88;1.30;;;;;;;26.01;51.10;100499.47;6261240;22;20070;-80
2023/07/28 12:38:29;;;;;;;3.65;1.45;;;;;;;26.12;49.92;100502.81;6261161;22;20022;-79
2023/07/28 12:41:23;;;;;;;3.70;1.25;;;;;;;26.69;47.90;100500.53;6277386;22;20022;-79
2023/07/28 12:44:18;;;;;;;6.90;1.17;;;;;;;26.87;48.38;100493.84;6241412;22;20026;-80
2023/07/28 12:47:11;;;;;;;3.75;1.27;;;;;;;26.53;49.56;100483.72;6264457;22;20492;-79
2023/07/28 12:50:06;;;;;;;2.70;1.15;;;;;;;26.79;47.48;100490.34;6262005;22;20019;-80
2023/07/28 12:52:56;;;;;;;;;;;;;;;27.22;47.15;100490.25;6262731;22;20038;-80
2023/07/28 12:55:48;;;;;;;2.15;1.25;;;;;;;27.32;44.84;100485.63;6262364;22;19915;-79
2023/07/28 12:58:40;;;;;;;2.30;1.35;;;;;;;27.22;45.96;100482.66;6241541;22;20482;-79
2023/07/28 13:01:34;;;;;;;2.42;0.90;;;;;;;27.03;47.63;100482.69;6241144;22;20031;-79
2023/07/28 13:04:28;;;;;;;5.90;1.60;;;;;;;27.41;45.82;100485.78;6262545;22;20118;-79
2023/07/28 13:07:23;;;;;;;4.13;1.67;;;;;;;27.85;43.43;100479.50;6241766;22;20031;-79
2023/07/28 13:10:18;;;;;;;1.80;1.15;;;;;;;27.05;47.02;100477.47;6261145;22;20086;-79
2023/07/28 13:13:12;;;;;;;9.32;1.85;;;;;;;27.09;46.50;100470.56;6261469;22;20023;-79
2023/07/28 13:16:07;;;;;;;4.90;1.60;;;;;;;27.34;45.32;100467.19;6261374;22;20027;-79
2023/07/28 13:19:02;;;;;;;4.38;1.35;;;;;;;26.66;48.17;100461.56;6261116;22;20022;-79
2023/07/28 13:22:12;;;;;;;2.25;0.98;;;;;;;27.03;46.93;100472.31;6260733;22;20027;-79
2023/07/28 13:25:25;;;;;;;4.65;1.40;;;;;;;26.37;48.95;100464.91;6260455;22;20023;-79
2023/07/28 13:28:17;;;;;;;3.95;0.93;;;;;;;26.43;48.85;100456.06;6260150;22;20079;-80
2023/07/28 13:31:12;;;;;;;4.63;1.42;;;;;;;26.46;48.61;100458.00;6275868;22;20473;-80
2023/07/28 13:34:02;;;;;;;3.38;1.25;;;;;;;27.54;44.65;100453.97;6260393;22;20027;-80
2023/07/28 13:36:58;;;;;;;4.25;1.33;;;;;;;26.93;45.70;100453.78;6283007;22;20019;-80
2023/07/28 13:39:51;;;;;;;4.53;1.58;;;;;;;27.32;45.28;100464.06;6238709;22;20030;-79